Clavigo — V2NQ — position and weather

sailwx.info

Track history (hours):
 
Tides and Currents Weather Stations Pressure Air Temp Water Temp Dewpoint Dewpoint Depression Visibility Wind Speed Wind Dir Waves Ship Positions

Clavigo

Last reported at 2017-Sep-19 19:00 UTC. Time now 2017-Sep-19 19:14 UTC.
Position N 43°29' W 002°49'.

Length 88 m; draft 3.8 m.

Type: Cargo ship. MMSI: 304010290.

Date/timePositionNaut miles runAvg speedWind from/ knotsBaromVisibWave heightAir tempDewpointWater temp
2017-Sep-19 19:00N 43°29' W 002°49'  
2017-Sep-15 17:12N 43°28' W 002°44'1 5.2
2017-Sep-15 17:00N 43°29' W 002°45'4 7.2
2017-Sep-15 16:30N 43°31' W 002°49'4 7.0
2017-Sep-15 16:00N 43°33' W 002°52'3 6.8
2017-Sep-15 15:30N 43°36' W 002°56'3 6.7
2017-Sep-15 15:00N 43°38' W 002°60'0 0.8
2017-Sep-15 14:30N 43°37' W 003°00'2 3.5
2017-Sep-15 14:00N 43°36' W 002°58'2 3.4
2017-Sep-15 13:30N 43°35' W 002°57'2 3.5
2017-Sep-15 13:00N 43°34' W 002°55'2 3.6
2017-Sep-15 12:29N 43°33' W 002°53'2 3.7
2017-Sep-15 12:00N 43°32' W 002°51'2 3.4
2017-Sep-15 11:29N 43°30' W 002°49'1 2.9
2017-Sep-15 11:00N 43°29' W 002°48'3 5.5
2017-Sep-15 10:29N 43°32' W 002°50'3 5.4
2017-Sep-15 10:00N 43°34' W 002°52'0 0.8
2017-Sep-15 09:30N 43°34' W 002°51'2 3.3
2017-Sep-15 09:00N 43°33' W 002°49'2 3.4
2017-Sep-15 08:29N 43°31' W 002°48'0 0.5
2017-Sep-15 08:00N 43°31' W 002°48'2 3.2
2017-Sep-15 07:30N 43°30' W 002°47'1 1.7
2017-Sep-15 06:58N 43°29' W 002°47'1 1.3
2017-Sep-15 06:29N 43°30' W 002°47'1 1.4
2017-Sep-15 05:59N 43°30' W 002°48'2 5.1
2017-Sep-15 05:30N 43°32' W 002°50'4 7.3
2017-Sep-15 05:00N 43°35' W 002°53'5 9.0
2017-Sep-15 04:30N 43°38' W 002°57'4 8.2
2017-Sep-15 04:00N 43°41' W 003°01'4 7.9
2017-Sep-15 03:30N 43°44' W 003°05'4 7.5
2017-Sep-15 03:00N 43°47' W 003°08'0 0.3
2017-Sep-15 02:30N 43°47' W 003°08'2 3.2
2017-Sep-15 02:00N 43°46' W 003°07'2 3.1
2017-Sep-15 01:30N 43°45' W 003°05'2 3.1
2017-Sep-15 00:58N 43°44' W 003°03'1 3.1
2017-Sep-15 00:30N 43°43' W 003°02'2 3.0
2017-Sep-15 00:00N 43°42' W 003°00'2 3.1
2017-Sep-14 23:30N 43°41' W 002°59'1 3.0
2017-Sep-14 23:00N 43°40' W 002°57'1 2.9
2017-Sep-14 22:30N 43°39' W 002°56'1 2.8
2017-Sep-14 22:00N 43°38' W 002°54'1 2.6
2017-Sep-14 21:30N 43°36' W 002°53'1 2.6
2017-Sep-14 21:00N 43°35' W 002°52'1 2.8
2017-Sep-14 20:30N 43°34' W 002°52'1 2.7
2017-Sep-14 20:00N 43°33' W 002°51'1 2.8
2017-Sep-14 19:30N 43°32' W 002°50'1 2.8
2017-Sep-14 19:00N 43°30' W 002°49'1 2.6
2017-Sep-14 18:30N 43°29' W 002°49'4 7.7
2017-Sep-14 18:00N 43°29' W 002°55'510.0
2017-Sep-14 17:30N 43°27' W 003°01'5 9.4
2017-Sep-14 17:00N 43°24' W 003°06'4 8.4
2017-Sep-14 16:30N 43°21' W 003°02'3 7.0
2017-Sep-14 16:01N 43°19' W 002°59'1 1.2
2017-Sep-14 15:22N 43°19' W 003°00'0 0.0
2017-Sep-14 14:58N 43°19' W 003°00'0 0.0
2017-Sep-14 14:22N 43°19' W 003°00'0 0.0
2017-Sep-14 13:49N 43°19' W 003°00'0 0.0
2017-Sep-14 13:28N 43°19' W 003°00'0 0.0
2017-Sep-14 12:52N 43°19' W 003°00'0 0.0
2017-Sep-14 12:28N 43°19' W 003°00'0 0.0
2017-Sep-14 11:55N 43°19' W 003°00'0 0.0
2017-Sep-14 11:28N 43°19' W 003°00'  
2017-Sep-10 01:57N 52°02' W 005°53'510.6
2017-Sep-10 01:31N 52°07' W 005°53'510.3
2017-Sep-10 01:00N 52°12' W 005°52'5 9.6
2017-Sep-10 00:31N 52°17' W 005°51'5 9.0
2017-Sep-10 00:01N 52°21' W 005°51'4 8.4
2017-Sep-09 23:31N 52°25' W 005°50'4 7.9
2017-Sep-09 23:00N 52°29' W 005°50'  
Track history (hours):
 
Tides and Currents Weather Stations Pressure Air Temp Water Temp Dewpoint Dewpoint Depression Visibility Wind Speed Wind Dir Waves Ship Positions

Clavigo

Last reported at 2017-Sep-19 19:00 UTC. Time now 2017-Sep-19 19:14 UTC.
Position N 43°29' W 002°49'.

Length 88 m; draft 3.8 m.

Type: Cargo ship. MMSI: 304010290.

Date/timePositionNaut miles runAvg speedWind from/ knotsBaromVisibWave heightAir tempDewpointWater temp
2017-Sep-19 19:00N 43°29' W 002°49'  
2017-Sep-15 17:12N 43°28' W 002°44'1 5.2
2017-Sep-15 17:00N 43°29' W 002°45'4 7.2
2017-Sep-15 16:30N 43°31' W 002°49'4 7.0
2017-Sep-15 16:00N 43°33' W 002°52'3 6.8
2017-Sep-15 15:30N 43°36' W 002°56'3 6.7
2017-Sep-15 15:00N 43°38' W 002°60'0 0.8
2017-Sep-15 14:30N 43°37' W 003°00'2 3.5
2017-Sep-15 14:00N 43°36' W 002°58'2 3.4
2017-Sep-15 13:30N 43°35' W 002°57'2 3.5
2017-Sep-15 13:00N 43°34' W 002°55'2 3.6
2017-Sep-15 12:29N 43°33' W 002°53'2 3.7
2017-Sep-15 12:00N 43°32' W 002°51'2 3.4
2017-Sep-15 11:29N 43°30' W 002°49'1 2.9
2017-Sep-15 11:00N 43°29' W 002°48'3 5.5
2017-Sep-15 10:29N 43°32' W 002°50'3 5.4
2017-Sep-15 10:00N 43°34' W 002°52'0 0.8
2017-Sep-15 09:30N 43°34' W 002°51'2 3.3
2017-Sep-15 09:00N 43°33' W 002°49'2 3.4
2017-Sep-15 08:29N 43°31' W 002°48'0 0.5
2017-Sep-15 08:00N 43°31' W 002°48'2 3.2
2017-Sep-15 07:30N 43°30' W 002°47'1 1.7
2017-Sep-15 06:58N 43°29' W 002°47'1 1.3
2017-Sep-15 06:29N 43°30' W 002°47'1 1.4
2017-Sep-15 05:59N 43°30' W 002°48'2 5.1
2017-Sep-15 05:30N 43°32' W 002°50'4 7.3
2017-Sep-15 05:00N 43°35' W 002°53'5 9.0
2017-Sep-15 04:30N 43°38' W 002°57'4 8.2
2017-Sep-15 04:00N 43°41' W 003°01'4 7.9
2017-Sep-15 03:30N 43°44' W 003°05'4 7.5
2017-Sep-15 03:00N 43°47' W 003°08'0 0.3
2017-Sep-15 02:30N 43°47' W 003°08'2 3.2
2017-Sep-15 02:00N 43°46' W 003°07'2 3.1
2017-Sep-15 01:30N 43°45' W 003°05'2 3.1
2017-Sep-15 00:58N 43°44' W 003°03'1 3.1
2017-Sep-15 00:30N 43°43' W 003°02'2 3.0
2017-Sep-15 00:00N 43°42' W 003°00'2 3.1
2017-Sep-14 23:30N 43°41' W 002°59'1 3.0
2017-Sep-14 23:00N 43°40' W 002°57'1 2.9
2017-Sep-14 22:30N 43°39' W 002°56'1 2.8
2017-Sep-14 22:00N 43°38' W 002°54'1 2.6
2017-Sep-14 21:30N 43°36' W 002°53'1 2.6
2017-Sep-14 21:00N 43°35' W 002°52'1 2.8
2017-Sep-14 20:30N 43°34' W 002°52'1 2.7
2017-Sep-14 20:00N 43°33' W 002°51'1 2.8
2017-Sep-14 19:30N 43°32' W 002°50'1 2.8
2017-Sep-14 19:00N 43°30' W 002°49'1 2.6
2017-Sep-14 18:30N 43°29' W 002°49'4 7.7
2017-Sep-14 18:00N 43°29' W 002°55'510.0
2017-Sep-14 17:30N 43°27' W 003°01'5 9.4
2017-Sep-14 17:00N 43°24' W 003°06'4 8.4
2017-Sep-14 16:30N 43°21' W 003°02'3 7.0
2017-Sep-14 16:01N 43°19' W 002°59'1 1.2
2017-Sep-14 15:22N 43°19' W 003°00'0 0.0
2017-Sep-14 14:58N 43°19' W 003°00'0 0.0
2017-Sep-14 14:22N 43°19' W 003°00'0 0.0
2017-Sep-14 13:49N 43°19' W 003°00'0 0.0
2017-Sep-14 13:28N 43°19' W 003°00'0 0.0
2017-Sep-14 12:52N 43°19' W 003°00'0 0.0
2017-Sep-14 12:28N 43°19' W 003°00'0 0.0
2017-Sep-14 11:55N 43°19' W 003°00'0 0.0
2017-Sep-14 11:28N 43°19' W 003°00'  
2017-Sep-10 01:57N 52°02' W 005°53'510.6
2017-Sep-10 01:31N 52°07' W 005°53'510.3
2017-Sep-10 01:00N 52°12' W 005°52'5 9.6
2017-Sep-10 00:31N 52°17' W 005°51'5 9.0
2017-Sep-10 00:01N 52°21' W 005°51'4 8.4
2017-Sep-09 23:31N 52°25' W 005°50'4 7.9
2017-Sep-09 23:00N 52°29' W 005°50'  

Dump ship's entire track history